createdAt,value
2023-03-19T00:00:46.010Z,100
2023-03-19T00:01:52.700Z,100
2023-03-19T00:03:00.208Z,100
2023-03-19T00:04:06.909Z,100
2023-03-19T00:05:14.134Z,100
2023-03-19T00:06:21.175Z,100
2023-03-19T00:07:27.771Z,100
2023-03-19T00:09:41.964Z,100
2023-03-19T00:10:49.098Z,100
2023-03-19T00:11:55.988Z,100
2023-03-19T00:13:02.713Z,100
2023-03-19T00:14:09.781Z,100
2023-03-19T00:15:17.015Z,100
2023-03-19T00:16:23.965Z,100
2023-03-19T00:17:31.002Z,100
2023-03-19T00:18:37.745Z,100
2023-03-19T00:19:44.833Z,100
2023-03-19T00:20:52.040Z,100
2023-03-19T00:21:58.934Z,100
2023-03-19T00:23:06.002Z,100
2023-03-19T00:24:12.592Z,100
2023-03-19T00:25:19.656Z,100
2023-03-19T00:26:27.345Z,100
2023-03-19T00:27:34.083Z,100
2023-03-19T00:28:40.975Z,100
2023-03-19T00:29:47.553Z,100
2023-03-19T00:30:55.000Z,100
2023-03-19T00:32:01.801Z,100
2023-03-19T00:33:09.164Z,100
2023-03-19T00:34:16.140Z,100
2023-03-19T00:35:22.643Z,100
2023-03-19T00:36:29.835Z,100
2023-03-19T00:37:36.943Z,100
2023-03-19T00:38:44.055Z,100
2023-03-19T00:39:50.998Z,100
2023-03-19T00:40:57.731Z,100
2023-03-19T00:42:05.062Z,100
2023-03-19T00:43:11.821Z,100
2023-03-19T00:44:18.908Z,100
2023-03-19T00:45:26.025Z,100
2023-03-19T00:46:32.925Z,100
2023-03-19T00:47:39.887Z,100
2023-03-19T00:48:47.059Z,100
2023-03-19T00:49:53.928Z,100
2023-03-19T00:51:02.307Z,100
2023-03-19T00:52:08.019Z,100
2023-03-19T00:54:21.949Z,100
2023-03-19T00:55:29.089Z,100
2023-03-19T00:56:36.240Z,100
2023-03-19T00:57:42.647Z,100
2023-03-19T00:58:49.756Z,100
2023-03-19T00:59:57.092Z,100
2023-03-19T01:01:04.390Z,100
2023-03-19T01:02:11.252Z,100
2023-03-19T01:03:17.785Z,100
2023-03-19T01:04:24.907Z,100
2023-03-19T01:05:32.253Z,100
2023-03-19T01:06:39.302Z,100
2023-03-19T01:07:46.145Z,100
2023-03-19T01:08:52.890Z,100
2023-03-19T01:09:59.853Z,100
2023-03-19T01:11:07.014Z,100
2023-03-19T01:12:14.223Z,100
2023-03-19T01:13:21.047Z,100
2023-03-19T01:14:27.623Z,100
2023-03-19T01:15:35.296Z,100
2023-03-19T01:16:41.878Z,100
2023-03-19T01:17:49.006Z,100
2023-03-19T01:18:56.377Z,100
2023-03-19T01:20:02.959Z,100
2023-03-19T01:21:09.930Z,100
2023-03-19T01:22:17.204Z,100
2023-03-19T01:23:24.328Z,100
2023-03-19T01:24:31.041Z,100
2023-03-19T01:25:37.973Z,100
2023-03-19T01:26:45.063Z,100
2023-03-19T01:27:52.125Z,100
2023-03-19T01:28:59.119Z,100
2023-03-19T01:30:05.575Z,100
2023-03-19T01:31:12.692Z,100
2023-03-19T01:32:19.881Z,100
2023-03-19T01:33:27.081Z,100
2023-03-19T01:34:34.166Z,100
2023-03-19T01:35:40.578Z,100
2023-03-19T01:37:54.951Z,100
2023-03-19T01:39:02.084Z,100
2023-03-19T01:40:08.958Z,100
2023-03-19T01:41:15.574Z,100
2023-03-19T01:42:22.665Z,100
2023-03-19T01:43:29.813Z,100
2023-03-19T01:44:36.906Z,100
2023-03-19T01:45:44.118Z,100
2023-03-19T01:46:50.845Z,100
2023-03-19T01:47:57.768Z,100
2023-03-19T01:49:04.890Z,100
2023-03-19T01:50:12.104Z,100
2023-03-19T01:51:18.986Z,100
2023-03-19T01:52:25.779Z,100
2023-03-19T01:53:32.955Z,100
2023-03-19T01:54:39.870Z,100
2023-03-19T01:55:46.929Z,100
2023-03-19T01:58:00.668Z,100
2023-03-19T01:59:07.672Z,100
2023-03-19T02:00:15.057Z,100
2023-03-19T02:01:21.929Z,100
2023-03-19T02:02:29.124Z,100
2023-03-19T02:03:35.806Z,100
2023-03-19T02:04:42.977Z,100
2023-03-19T02:05:49.942Z,100
2023-03-19T02:06:57.001Z,100
2023-03-19T02:08:04.126Z,100
2023-03-19T02:09:10.803Z,100
2023-03-19T02:10:17.880Z,100
2023-03-19T02:11:24.826Z,100
2023-03-19T02:12:31.953Z,100
2023-03-19T02:13:39.256Z,100
2023-03-19T02:14:45.647Z,100
2023-03-19T02:15:53.479Z,100
2023-03-19T02:17:00.073Z,100
2023-03-19T02:18:07.067Z,99
2023-03-19T02:19:14.031Z,99
2023-03-19T02:20:20.776Z,99
2023-03-19T02:21:27.736Z,99
2023-03-19T02:22:34.982Z,99
2023-03-19T02:23:42.084Z,99
2023-03-19T02:24:49.142Z,99
2023-03-19T02:25:55.630Z,99
2023-03-19T02:27:02.871Z,99
2023-03-19T02:28:09.814Z,99
2023-03-19T02:29:17.336Z,99
2023-03-19T02:30:24.101Z,99
2023-03-19T02:31:30.858Z,99
2023-03-19T02:32:37.925Z,99
2023-03-19T02:33:44.896Z,99
2023-03-19T02:34:51.971Z,99
2023-03-19T02:35:59.194Z,99
2023-03-19T02:37:05.746Z,99
2023-03-19T02:38:12.854Z,98
2023-03-19T02:39:20.039Z,98
2023-03-19T02:40:27.265Z,97
2023-03-19T02:41:34.212Z,97
2023-03-19T02:42:40.817Z,97
2023-03-19T02:43:48.096Z,96
2023-03-19T02:44:54.971Z,96
2023-03-19T02:46:01.994Z,96
2023-03-19T02:47:08.655Z,96
2023-03-19T02:48:15.811Z,95
2023-03-19T02:49:22.769Z,95
2023-03-19T02:50:29.837Z,95
2023-03-19T02:51:36.994Z,94
2023-03-19T02:52:44.444Z,95
2023-03-19T02:53:50.742Z,94
2023-03-19T02:54:57.883Z,94
2023-03-19T02:56:04.908Z,94
2023-03-19T02:57:12.205Z,94
2023-03-19T02:58:19.112Z,94
2023-03-19T02:59:25.815Z,94
2023-03-19T03:01:40.188Z,94
2023-03-19T03:02:46.995Z,94
2023-03-19T03:03:53.597Z,94
2023-03-19T03:06:07.780Z,93
2023-03-19T03:07:15.015Z,93
2023-03-19T03:08:22.060Z,93
2023-03-19T03:09:28.681Z,93
2023-03-19T03:10:35.921Z,93
2023-03-19T03:11:42.946Z,93
2023-03-19T03:12:50.028Z,93
2023-03-19T03:13:57.150Z,93
2023-03-19T03:15:03.751Z,93
2023-03-19T03:16:10.901Z,93
2023-03-19T03:17:17.782Z,93
2023-03-19T03:18:25.120Z,93
2023-03-19T03:19:32.439Z,93
2023-03-19T03:20:38.587Z,93
2023-03-19T03:21:45.711Z,93
2023-03-19T03:22:53.020Z,93
2023-03-19T03:23:59.912Z,92
2023-03-19T03:25:07.052Z,92
2023-03-19T03:26:13.766Z,92
2023-03-19T03:27:20.711Z,92
2023-03-19T03:28:27.846Z,92
2023-03-19T03:29:35.210Z,92
2023-03-19T03:30:42.012Z,92
2023-03-19T03:31:48.810Z,92
2023-03-19T03:32:56.232Z,92
2023-03-19T03:34:02.989Z,91
2023-03-19T03:35:10.137Z,91
2023-03-19T03:36:17.060Z,91
2023-03-19T03:37:23.637Z,91
2023-03-19T03:38:30.834Z,91
2023-03-19T03:39:37.833Z,90
2023-03-19T03:40:45.100Z,90
2023-03-19T03:41:52.180Z,90
2023-03-19T03:42:58.726Z,90
2023-03-19T03:44:05.731Z,89
2023-03-19T03:45:12.968Z,89
2023-03-19T03:46:20.046Z,89
2023-03-19T03:47:27.086Z,89
2023-03-19T03:48:33.824Z,89
2023-03-19T03:49:40.792Z,89
2023-03-19T03:50:47.998Z,89
2023-03-19T03:51:55.116Z,89
2023-03-19T03:53:02.316Z,89
2023-03-19T03:54:08.834Z,89
2023-03-19T03:55:15.953Z,89
2023-03-19T03:56:23.008Z,89
2023-03-19T03:57:30.062Z,89
2023-03-19T03:58:37.229Z,89
2023-03-19T03:59:43.810Z,89
2023-03-19T04:00:50.951Z,89
2023-03-19T04:01:57.899Z,89
2023-03-19T04:03:05.205Z,89
2023-03-19T04:04:12.132Z,89
2023-03-19T04:05:18.819Z,89
2023-03-19T04:06:25.998Z,89
2023-03-19T04:07:32.986Z,89
2023-03-19T04:08:39.978Z,89
2023-03-19T04:09:47.253Z,89
2023-03-19T04:10:53.845Z,89
2023-03-19T04:12:00.757Z,89
2023-03-19T04:13:08.048Z,89
2023-03-19T04:14:15.126Z,88
2023-03-19T04:15:22.238Z,88
2023-03-19T04:16:28.868Z,88
2023-03-19T04:17:35.928Z,88
2023-03-19T04:18:43.068Z,88
2023-03-19T04:19:50.179Z,88
2023-03-19T04:20:56.699Z,88
2023-03-19T04:22:03.712Z,88
2023-03-19T04:23:11.341Z,88
2023-03-19T04:24:17.985Z,88
2023-03-19T04:25:25.026Z,88
2023-03-19T04:26:31.609Z,88
2023-03-19T04:27:38.761Z,88
2023-03-19T04:28:45.829Z,88
2023-03-19T04:29:52.404Z,88
2023-03-19T04:31:02.425Z,88
2023-03-19T04:32:06.812Z,88
2023-03-19T04:34:20.842Z,87
2023-03-19T04:35:27.943Z,87
2023-03-19T04:36:35.172Z,87
2023-03-19T04:37:42.261Z,87
2023-03-19T04:38:48.831Z,87
2023-03-19T04:39:56.001Z,87
2023-03-19T04:41:03.067Z,87
2023-03-19T04:42:10.102Z,87
2023-03-19T04:43:16.751Z,87
2023-03-19T04:44:23.826Z,87
2023-03-19T04:45:30.976Z,87
2023-03-19T04:46:38.054Z,87
2023-03-19T04:47:45.185Z,87
2023-03-19T04:48:51.954Z,87
2023-03-19T04:49:58.801Z,87
2023-03-19T04:51:06.009Z,87
2023-03-19T04:52:12.949Z,87
2023-03-19T04:53:20.064Z,87
2023-03-19T04:54:26.654Z,87
2023-03-19T04:55:33.831Z,87
2023-03-19T04:56:40.901Z,86
2023-03-19T04:57:47.923Z,86
2023-03-19T04:58:55.171Z,86
2023-03-19T05:00:01.611Z,86
2023-03-19T05:01:08.746Z,86
2023-03-19T05:02:15.971Z,86
2023-03-19T05:03:23.133Z,86
2023-03-19T05:04:30.036Z,86
2023-03-19T05:05:36.789Z,86
2023-03-19T05:06:43.920Z,86
2023-03-19T05:08:58.025Z,86
2023-03-19T05:10:05.258Z,86
2023-03-19T05:11:11.629Z,86
2023-03-19T05:12:18.862Z,86
2023-03-19T05:13:26.051Z,86
2023-03-19T05:14:33.072Z,86
2023-03-19T05:15:40.175Z,86
2023-03-19T05:16:46.677Z,86
2023-03-19T05:17:53.934Z,86
2023-03-19T05:19:00.972Z,86
2023-03-19T05:20:08.072Z,86
2023-03-19T05:21:15.095Z,86
2023-03-19T05:22:21.854Z,86
2023-03-19T05:23:28.939Z,86
2023-03-19T05:24:35.944Z,86
2023-03-19T05:25:43.117Z,86
2023-03-19T05:26:50.197Z,86
2023-03-19T05:27:56.703Z,86
2023-03-19T05:29:03.797Z,86
2023-03-19T05:30:11.000Z,86
2023-03-19T05:31:18.265Z,86
2023-03-19T05:32:25.194Z,86
2023-03-19T05:33:31.740Z,86
2023-03-19T05:34:38.859Z,86
2023-03-19T05:35:46.123Z,86
2023-03-19T05:36:53.490Z,86
2023-03-19T05:38:00.219Z,86
2023-03-19T05:39:06.935Z,86
2023-03-19T05:40:13.983Z,86
2023-03-19T05:41:20.889Z,86
2023-03-19T05:42:27.996Z,85
2023-03-19T05:43:35.143Z,85
2023-03-19T05:44:41.782Z,85
2023-03-19T05:45:48.889Z,85
2023-03-19T05:46:56.098Z,85
2023-03-19T05:48:03.139Z,85
2023-03-19T05:49:10.257Z,85
2023-03-19T05:50:16.827Z,85
2023-03-19T05:51:23.937Z,85
2023-03-19T05:52:30.392Z,84
2023-03-19T05:52:31.070Z,84
2023-03-19T05:53:38.178Z,85
2023-03-19T05:54:45.238Z,84
2023-03-19T05:55:51.690Z,84
2023-03-19T05:56:58.882Z,84
2023-03-19T05:58:06.064Z,84
2023-03-19T05:59:13.206Z,84
2023-03-19T06:00:19.683Z,84
2023-03-19T06:02:34.027Z,83
2023-03-19T06:03:41.129Z,83
2023-03-19T06:04:48.025Z,83
2023-03-19T06:05:54.732Z,83
2023-03-19T06:07:01.748Z,83
2023-03-19T06:08:08.915Z,83
2023-03-19T06:09:16.091Z,83
2023-03-19T06:10:23.156Z,83
2023-03-19T06:12:36.880Z,82
2023-03-19T06:13:43.854Z,82
2023-03-19T06:14:51.053Z,82
2023-03-19T06:15:58.143Z,82
2023-03-19T06:17:04.718Z,82
2023-03-19T06:18:11.757Z,82
2023-03-19T06:19:18.944Z,82
2023-03-19T06:20:25.960Z,82
2023-03-19T06:21:33.129Z,82
2023-03-19T06:22:39.764Z,82
2023-03-19T06:23:46.898Z,81
2023-03-19T06:24:53.977Z,81
2023-03-19T06:26:01.010Z,81
2023-03-19T06:27:08.195Z,81
2023-03-19T06:28:14.720Z,81
2023-03-19T06:29:21.914Z,81
2023-03-19T06:30:29.532Z,81
2023-03-19T06:31:36.333Z,81
2023-03-19T06:32:43.212Z,81
2023-03-19T06:33:49.694Z,81
2023-03-19T06:34:56.868Z,81
2023-03-19T06:36:03.902Z,81
2023-03-19T06:37:11.013Z,81
2023-03-19T06:38:18.065Z,81
2023-03-19T06:39:24.682Z,81
2023-03-19T06:40:32.054Z,81
2023-03-19T06:41:39.020Z,81
2023-03-19T06:42:46.104Z,81
2023-03-19T06:43:53.289Z,81
2023-03-19T06:44:59.732Z,81
2023-03-19T06:46:08.302Z,81
2023-03-19T06:47:14.030Z,81
2023-03-19T06:48:21.092Z,81
2023-03-19T06:49:28.170Z,81
2023-03-19T06:50:35.008Z,81
2023-03-19T06:51:41.796Z,81
2023-03-19T06:52:49.023Z,81
2023-03-19T06:53:56.047Z,81
2023-03-19T06:55:03.257Z,81
2023-03-19T06:56:09.675Z,81
2023-03-19T06:57:16.953Z,81
2023-03-19T06:58:24.008Z,81
2023-03-19T06:59:31.086Z,81
2023-03-19T07:00:38.230Z,81
2023-03-19T07:01:44.715Z,81
2023-03-19T07:02:51.970Z,81
2023-03-19T07:03:59.049Z,81
2023-03-19T07:05:06.129Z,81
2023-03-19T07:06:13.330Z,81
2023-03-19T07:07:19.813Z,81
2023-03-19T07:08:26.901Z,81
2023-03-19T07:09:34.020Z,81
2023-03-19T07:10:41.027Z,81
2023-03-19T07:11:48.109Z,81
2023-03-19T07:12:54.734Z,81
2023-03-19T07:14:01.878Z,81
2023-03-19T07:15:08.954Z,82
2023-03-19T07:16:16.149Z,82
2023-03-19T07:17:22.634Z,82
2023-03-19T07:18:29.789Z,82
2023-03-19T07:19:36.842Z,82
2023-03-19T07:20:43.987Z,82
2023-03-19T07:21:51.147Z,82
2023-03-19T07:22:57.720Z,82
2023-03-19T07:24:04.881Z,82
2023-03-19T07:25:11.954Z,82
2023-03-19T07:26:18.961Z,82
2023-03-19T07:27:26.064Z,82
2023-03-19T07:28:32.744Z,82
2023-03-19T07:30:46.961Z,82
2023-03-19T07:31:54.176Z,82
2023-03-19T07:33:01.181Z,82
2023-03-19T07:34:08.197Z,82
2023-03-19T07:35:14.809Z,82
2023-03-19T07:36:22.043Z,82
2023-03-19T07:37:28.949Z,82
2023-03-19T07:38:36.206Z,82
2023-03-19T07:39:42.795Z,82
2023-03-19T07:41:01.454Z,82
2023-03-19T07:41:56.972Z,83
2023-03-19T07:43:04.059Z,83
2023-03-19T07:44:11.233Z,83
2023-03-19T07:45:17.766Z,83
2023-03-19T07:46:24.841Z,83
2023-03-19T07:47:32.182Z,83
2023-03-19T07:48:39.069Z,83
2023-03-19T07:49:46.200Z,83
2023-03-19T07:50:52.765Z,83
2023-03-19T07:51:59.740Z,83
2023-03-19T07:53:06.887Z,83
2023-03-19T07:54:14.087Z,83
2023-03-19T07:55:21.171Z,83
2023-03-19T07:56:27.738Z,83
2023-03-19T07:57:34.957Z,83
2023-03-19T07:58:42.001Z,83
2023-03-19T07:59:49.219Z,83
2023-03-19T08:00:56.196Z,83
2023-03-19T08:02:02.873Z,83
2023-03-19T08:03:09.798Z,83
2023-03-19T08:04:17.067Z,83
2023-03-19T08:05:24.087Z,83
2023-03-19T08:06:31.799Z,83
2023-03-19T08:07:38.251Z,83
2023-03-19T08:08:44.860Z,83
2023-03-19T08:09:52.008Z,83
2023-03-19T08:11:02.207Z,83
2023-03-19T08:12:06.170Z,83
2023-03-19T08:13:12.770Z,83
2023-03-19T08:14:20.013Z,83
2023-03-19T08:15:26.904Z,83
2023-03-19T08:16:34.060Z,83
2023-03-19T08:17:41.187Z,83
2023-03-19T08:19:54.955Z,83
2023-03-19T08:21:02.433Z,83
2023-03-19T08:22:09.167Z,83
2023-03-19T08:23:16.213Z,83
2023-03-19T08:24:22.803Z,82
2023-03-19T08:25:29.876Z,82
2023-03-19T08:26:37.060Z,82
2023-03-19T08:27:44.187Z,82
2023-03-19T08:28:51.384Z,82
2023-03-19T08:29:57.685Z,82
2023-03-19T08:31:05.142Z,82
2023-03-19T08:32:12.036Z,82
2023-03-19T08:33:19.213Z,82
2023-03-19T08:34:25.640Z,82
2023-03-19T08:35:32.914Z,82
2023-03-19T08:36:40.003Z,82
2023-03-19T08:38:54.229Z,82
2023-03-19T08:40:00.934Z,82
2023-03-19T08:41:07.815Z,82
2023-03-19T08:42:14.844Z,82
2023-03-19T08:43:22.287Z,82
2023-03-19T08:44:29.126Z,82
2023-03-19T08:45:35.752Z,82
2023-03-19T08:46:42.961Z,82
2023-03-19T08:47:49.817Z,82
2023-03-19T08:48:57.066Z,82
2023-03-19T08:50:04.152Z,82
2023-03-19T08:51:10.757Z,82
2023-03-19T08:52:17.867Z,82
2023-03-19T08:53:24.954Z,82
2023-03-19T08:54:32.069Z,82
2023-03-19T08:55:39.187Z,82
2023-03-19T08:56:45.837Z,82
2023-03-19T08:58:59.985Z,82
2023-03-19T09:00:07.060Z,82
2023-03-19T09:01:14.203Z,82
2023-03-19T09:02:20.732Z,81
2023-03-19T09:03:27.736Z,81
2023-03-19T09:04:35.012Z,81
2023-03-19T09:05:42.089Z,81
2023-03-19T09:06:49.127Z,81
2023-03-19T09:07:55.835Z,81
2023-03-19T09:09:02.903Z,81
2023-03-19T09:10:10.010Z,81
2023-03-19T09:11:17.166Z,81
2023-03-19T09:12:24.241Z,81
2023-03-19T09:13:30.753Z,81
2023-03-19T09:14:37.890Z,81
2023-03-19T09:15:45.001Z,81
2023-03-19T09:16:52.093Z,81
2023-03-19T09:17:59.066Z,81
2023-03-19T09:19:05.828Z,81
2023-03-19T09:19:05.867Z,81
2023-03-19T09:20:12.864Z,81
2023-03-19T09:21:19.978Z,81
2023-03-19T09:23:34.231Z,81
2023-03-19T09:24:40.885Z,81
2023-03-19T09:25:47.848Z,81
2023-03-19T09:26:54.955Z,81
2023-03-19T09:28:02.014Z,80
2023-03-19T09:29:09.220Z,80
2023-03-19T09:30:15.810Z,80
2023-03-19T09:31:23.027Z,80
2023-03-19T09:32:29.991Z,80
2023-03-19T09:33:37.156Z,80
2023-03-19T09:34:44.777Z,81
2023-03-19T09:35:50.920Z,81
2023-03-19T09:36:57.840Z,80
2023-03-19T09:38:05.061Z,81
2023-03-19T09:39:13.588Z,81
2023-03-19T09:40:19.104Z,81
2023-03-19T09:41:26.237Z,81
2023-03-19T09:42:32.928Z,81
2023-03-19T09:43:39.886Z,81
2023-03-19T09:44:47.217Z,81
2023-03-19T09:45:54.208Z,81
2023-03-19T09:47:00.757Z,81
2023-03-19T09:48:07.826Z,81
2023-03-19T09:49:15.097Z,82
2023-03-19T09:50:22.149Z,82
2023-03-19T09:51:29.238Z,82
2023-03-19T09:52:35.805Z,82
2023-03-19T09:53:42.875Z,82
2023-03-19T09:54:49.903Z,82
2023-03-19T09:55:57.291Z,82
2023-03-19T09:57:03.632Z,82
2023-03-19T09:58:10.704Z,82
2023-03-19T09:59:17.911Z,82
2023-03-19T10:00:25.074Z,83
2023-03-19T10:01:32.161Z,83
2023-03-19T10:02:39.236Z,83
2023-03-19T10:03:45.914Z,83
2023-03-19T10:04:52.849Z,83
2023-03-19T10:05:59.922Z,83
2023-03-19T10:07:07.165Z,83
2023-03-19T10:08:13.670Z,83
2023-03-19T10:09:20.734Z,83
2023-03-19T10:10:27.979Z,83
2023-03-19T10:11:35.155Z,83
2023-03-19T10:12:42.139Z,83
2023-03-19T10:13:48.825Z,83
2023-03-19T10:14:55.774Z,83
2023-03-19T10:16:02.987Z,83
2023-03-19T10:17:10.058Z,82
2023-03-19T10:18:17.155Z,82
2023-03-19T10:19:23.768Z,82
2023-03-19T10:20:30.879Z,82
2023-03-19T10:21:37.937Z,82
2023-03-19T10:22:45.025Z,82
2023-03-19T10:23:52.216Z,82
2023-03-19T10:24:58.752Z,82
2023-03-19T10:27:12.883Z,82
2023-03-19T10:28:19.951Z,82
2023-03-19T10:29:27.088Z,81
2023-03-19T10:30:34.207Z,81
2023-03-19T10:31:40.912Z,81
2023-03-19T10:32:47.912Z,81
2023-03-19T10:33:55.158Z,81
2023-03-19T10:35:02.259Z,81
2023-03-19T10:36:08.746Z,81
2023-03-19T10:37:15.878Z,81
2023-03-19T10:38:23.049Z,81
2023-03-19T10:39:30.077Z,81
2023-03-19T10:40:37.117Z,81
2023-03-19T10:41:43.702Z,81
2023-03-19T10:42:50.860Z,81
2023-03-19T10:43:58.011Z,81
2023-03-19T10:45:05.179Z,81
2023-03-19T10:46:12.152Z,81
2023-03-19T10:47:18.784Z,81
2023-03-19T10:48:28.058Z,81
2023-03-19T10:49:33.019Z,81
2023-03-19T10:50:39.990Z,82
2023-03-19T10:51:47.255Z,82
2023-03-19T10:52:53.734Z,82
2023-03-19T10:54:00.974Z,82
2023-03-19T10:55:08.097Z,82
2023-03-19T10:56:15.179Z,82
2023-03-19T10:57:22.220Z,82
2023-03-19T10:58:28.920Z,82
2023-03-19T10:59:35.827Z,82
2023-03-19T11:00:43.127Z,82
2023-03-19T11:01:50.114Z,82
2023-03-19T11:02:57.772Z,82
2023-03-19T11:04:03.958Z,82
2023-03-19T11:05:10.804Z,82
2023-03-19T11:06:18.021Z,83
2023-03-19T11:07:25.335Z,83
2023-03-19T11:08:35.752Z,83
2023-03-19T11:09:38.902Z,83
2023-03-19T11:10:45.971Z,83
2023-03-19T11:11:53.117Z,83
2023-03-19T11:13:00.183Z,83
2023-03-19T11:14:07.320Z,83
2023-03-19T11:15:13.926Z,83
2023-03-19T11:16:21.026Z,83
2023-03-19T11:17:28.069Z,83
2023-03-19T11:18:35.244Z,83
2023-03-19T11:19:42.219Z,83
2023-03-19T11:20:49.137Z,83
2023-03-19T11:21:55.984Z,83
2023-03-19T11:23:02.964Z,83
2023-03-19T11:24:10.353Z,83
2023-03-19T11:25:17.360Z,83
2023-03-19T11:26:24.379Z,83
2023-03-19T11:27:31.018Z,83
2023-03-19T11:28:37.944Z,83
2023-03-19T11:30:52.253Z,83
2023-03-19T11:32:02.014Z,83
2023-03-19T11:33:06.133Z,83
2023-03-19T11:34:13.088Z,83
2023-03-19T11:35:20.182Z,83
2023-03-19T11:36:26.659Z,83
2023-03-19T11:37:33.941Z,83
2023-03-19T11:38:40.838Z,83
2023-03-19T11:39:47.941Z,83
2023-03-19T11:40:55.090Z,83
2023-03-19T11:42:02.308Z,83
2023-03-19T11:43:08.883Z,83
2023-03-19T11:44:16.057Z,83
2023-03-19T11:45:22.973Z,83
2023-03-19T11:46:30.123Z,83
2023-03-19T11:47:36.684Z,83
2023-03-19T11:48:44.455Z,83
2023-03-19T11:49:50.943Z,83
2023-03-19T11:50:58.058Z,83
2023-03-19T11:52:05.177Z,84
2023-03-19T11:53:11.680Z,83
2023-03-19T11:55:26.069Z,83
2023-03-19T11:56:33.095Z,83
2023-03-19T11:57:40.222Z,83
2023-03-19T11:58:46.718Z,83
2023-03-19T11:59:53.953Z,83
2023-03-19T12:01:02.551Z,83
2023-03-19T12:02:08.153Z,83
2023-03-19T12:03:15.303Z,83
2023-03-19T12:04:21.872Z,83
2023-03-19T12:05:28.908Z,83
2023-03-19T12:06:36.047Z,83
2023-03-19T12:07:43.248Z,83
2023-03-19T12:08:50.085Z,83
2023-03-19T12:09:56.825Z,83
2023-03-19T12:11:03.890Z,83
2023-03-19T12:12:11.036Z,83
2023-03-19T12:13:18.071Z,83
2023-03-19T12:14:25.269Z,83
2023-03-19T12:15:31.927Z,83
2023-03-19T12:16:45.817Z,83
2023-03-19T12:17:45.963Z,83
2023-03-19T12:18:53.142Z,83
2023-03-19T12:20:00.227Z,83
2023-03-19T12:21:06.833Z,83
2023-03-19T12:22:13.911Z,83
2023-03-19T12:23:21.013Z,83
2023-03-19T12:24:28.143Z,83
2023-03-19T12:25:35.647Z,83
2023-03-19T12:26:41.717Z,83
2023-03-19T12:27:48.834Z,83
2023-03-19T12:28:56.035Z,83
2023-03-19T12:30:03.187Z,83
2023-03-19T12:31:10.848Z,83
2023-03-19T12:32:16.861Z,83
2023-03-19T12:34:31.087Z,83
2023-03-19T12:35:38.494Z,83
2023-03-19T12:36:45.167Z,83
2023-03-19T12:37:51.864Z,84
2023-03-19T12:38:58.944Z,84
2023-03-19T12:40:06.062Z,83
2023-03-19T12:41:13.138Z,84
2023-03-19T12:42:20.283Z,83
2023-03-19T12:43:26.816Z,83
2023-03-19T12:44:33.945Z,83
2023-03-19T12:45:41.180Z,83
2023-03-19T12:46:48.345Z,83
2023-03-19T12:47:55.354Z,83
2023-03-19T12:49:01.898Z,83
2023-03-19T12:50:08.910Z,84
2023-03-19T12:51:15.971Z,84
2023-03-19T12:52:23.080Z,84
2023-03-19T12:53:30.357Z,84
2023-03-19T12:54:36.986Z,84
2023-03-19T12:55:43.970Z,84
2023-03-19T12:56:51.050Z,84
2023-03-19T12:57:58.124Z,83
2023-03-19T12:59:04.721Z,83
2023-03-19T13:00:11.912Z,83
2023-03-19T13:01:18.964Z,83
2023-03-19T13:02:26.116Z,83
2023-03-19T13:03:33.182Z,83
2023-03-19T13:04:40.013Z,83
2023-03-19T13:05:46.879Z,83
2023-03-19T13:06:53.996Z,83
2023-03-19T13:08:01.065Z,83
2023-03-19T13:09:08.145Z,83
2023-03-19T13:10:14.777Z,83
2023-03-19T13:11:21.786Z,83
2023-03-19T13:12:28.875Z,83
2023-03-19T13:13:36.006Z,83
2023-03-19T13:14:43.149Z,82
2023-03-19T13:15:49.793Z,82
2023-03-19T13:16:57.005Z,82
2023-03-19T13:18:03.975Z,82
2023-03-19T13:19:11.071Z,82
2023-03-19T13:20:18.089Z,82
2023-03-19T13:21:24.778Z,82
2023-03-19T13:23:38.970Z,82
2023-03-19T13:24:46.172Z,82
2023-03-19T13:25:53.206Z,82
2023-03-19T13:26:59.753Z,82
2023-03-19T13:28:06.985Z,81
2023-03-19T13:29:13.938Z,81
2023-03-19T13:30:20.995Z,81
2023-03-19T13:31:28.355Z,81
2023-03-19T13:32:34.799Z,81
2023-03-19T13:33:41.939Z,81
2023-03-19T13:34:49.017Z,81
2023-03-19T13:35:56.141Z,81
2023-03-19T13:38:09.826Z,81
2023-03-19T13:39:16.964Z,81
2023-03-19T13:40:23.947Z,81
2023-03-19T13:41:31.101Z,81
2023-03-19T13:42:38.189Z,81
2023-03-19T13:43:44.984Z,80
2023-03-19T13:44:51.905Z,81
2023-03-19T13:45:58.977Z,81
2023-03-19T13:47:06.092Z,81
2023-03-19T13:48:23.945Z,81
2023-03-19T13:49:19.832Z,81
2023-03-19T13:50:26.967Z,81
2023-03-19T13:51:34.084Z,81
2023-03-19T13:52:41.136Z,81
2023-03-19T13:53:48.255Z,81
2023-03-19T13:54:54.929Z,81
2023-03-19T13:56:02.529Z,80
2023-03-19T13:58:16.070Z,80
2023-03-19T14:01:37.021Z,81
2023-03-19T14:02:44.051Z,81
2023-03-19T14:03:51.184Z,81
2023-03-19T14:04:58.262Z,81
2023-03-19T14:06:04.831Z,81
2023-03-19T14:07:11.864Z,81
2023-03-19T14:08:19.004Z,81
2023-03-19T14:10:33.163Z,81
2023-03-19T14:11:39.867Z,81
2023-03-19T14:12:46.883Z,81
2023-03-19T14:13:54.124Z,81
2023-03-19T14:15:01.264Z,81
2023-03-19T14:16:07.794Z,81
2023-03-19T14:17:14.955Z,81
2023-03-19T14:18:21.884Z,82
2023-03-19T14:19:29.140Z,82
2023-03-19T14:20:40.793Z,82
2023-03-19T14:21:46.901Z,82
2023-03-19T14:22:50.189Z,82
2023-03-19T14:23:57.658Z,82
2023-03-19T14:25:05.945Z,83
2023-03-19T14:26:11.162Z,83
2023-03-19T14:27:17.784Z,83
2023-03-19T14:28:24.912Z,83
2023-03-19T14:29:32.062Z,83
2023-03-19T14:30:39.095Z,83
2023-03-19T14:31:46.258Z,83
2023-03-19T14:32:52.878Z,83
2023-03-19T14:33:59.900Z,83
2023-03-19T14:35:07.070Z,84
2023-03-19T14:36:14.095Z,84
2023-03-19T14:37:21.230Z,84
2023-03-19T14:38:27.682Z,84
2023-03-19T14:39:34.961Z,84
2023-03-19T14:41:49.156Z,84
2023-03-19T14:42:56.261Z,84
2023-03-19T14:44:02.868Z,84
2023-03-19T14:45:09.804Z,84
2023-03-19T14:46:17.018Z,84
2023-03-19T14:47:24.011Z,84
2023-03-19T14:48:31.130Z,84
2023-03-19T14:49:37.694Z,84
2023-03-19T14:51:52.070Z,84
2023-03-19T14:52:59.145Z,84
2023-03-19T14:54:06.327Z,84
2023-03-19T14:55:12.866Z,84
2023-03-19T14:56:19.889Z,84
2023-03-19T14:57:26.906Z,84
2023-03-19T14:58:34.055Z,84
2023-03-19T14:59:41.237Z,84
2023-03-19T15:00:47.816Z,84
2023-03-19T15:01:54.927Z,84
2023-03-19T15:03:02.019Z,84
2023-03-19T15:04:09.160Z,84
2023-03-19T15:05:16.513Z,84
2023-03-19T15:06:22.837Z,84
2023-03-19T15:07:29.940Z,84
2023-03-19T15:08:37.047Z,84
2023-03-19T15:09:44.144Z,84
2023-03-19T15:10:51.128Z,84
2023-03-19T15:11:57.782Z,84
2023-03-19T15:13:04.944Z,84
2023-03-19T15:14:12.083Z,84
2023-03-19T15:15:19.240Z,84
2023-03-19T15:16:26.225Z,84
2023-03-19T15:17:32.948Z,84
2023-03-19T15:18:39.832Z,84
2023-03-19T15:19:47.244Z,84
2023-03-19T15:20:54.111Z,85
2023-03-19T15:22:01.253Z,84
2023-03-19T15:23:19.808Z,85
2023-03-19T15:24:15.009Z,85
2023-03-19T15:25:22.150Z,85
2023-03-19T15:26:29.053Z,85
2023-03-19T15:27:36.206Z,85
2023-03-19T15:28:44.553Z,85
2023-03-19T15:29:51.575Z,85
2023-03-19T15:31:03.461Z,85
2023-03-19T15:32:07.548Z,85
2023-03-19T15:33:25.702Z,85
2023-03-19T15:34:18.171Z,85
2023-03-19T15:35:25.039Z,85
2023-03-19T15:36:32.096Z,85
2023-03-19T15:37:39.178Z,85
2023-03-19T15:38:46.270Z,85
2023-03-19T15:39:52.906Z,85
2023-03-19T15:41:02.633Z,85
2023-03-19T15:42:07.122Z,85
2023-03-19T15:43:14.192Z,85
2023-03-19T15:45:27.880Z,86
2023-03-19T15:46:35.145Z,86
2023-03-19T15:47:42.118Z,86
2023-03-19T15:48:49.093Z,86
2023-03-19T15:49:55.866Z,86
2023-03-19T15:51:02.854Z,86
2023-03-19T15:52:10.020Z,86
2023-03-19T15:53:17.186Z,86
2023-03-19T15:54:24.264Z,86
2023-03-19T15:55:30.680Z,86
2023-03-19T15:56:37.868Z,86
2023-03-19T15:57:45.077Z,86
2023-03-19T15:58:53.242Z,86
2023-03-19T15:59:59.199Z,86
2023-03-19T16:01:05.807Z,86
2023-03-19T16:02:12.922Z,86
2023-03-19T16:03:20.557Z,86
2023-03-19T16:04:27.152Z,86
2023-03-19T16:05:34.229Z,86
2023-03-19T16:06:40.770Z,86
2023-03-19T16:07:48.008Z,86
2023-03-19T16:08:54.960Z,86
2023-03-19T16:10:02.148Z,86
2023-03-19T16:11:09.214Z,86
2023-03-19T16:12:15.815Z,86
2023-03-19T16:13:22.961Z,86
2023-03-19T16:14:30.028Z,87
2023-03-19T16:15:37.133Z,86
2023-03-19T16:16:44.227Z,87
2023-03-19T16:17:50.707Z,87
2023-03-19T16:20:04.958Z,87
2023-03-19T16:21:12.186Z,87